Golovin, AK

1:20 PM AKDT on March 27, 2017 (GMT -0800)
Golovin

Weather History for PAGL - March, 2014

Change the Weather History Date:

Saturday, March 22, 2014

  Actual Average Record
Temperature  
Mean Temperature 19 °F -  
Max Temperature 33 °F - - ()
Min Temperature 5 °F - - ()
Degree Days  
Heating Degree Days 46    
Moisture  
Dew Point 0 °F    
Average Humidity 44    
Maximum Humidity 100    
Minimum Humidity 22    
Precipitation  
Precipitation 0.00 in - - ()
Sea Level Pressure  
Sea Level Pressure 30.56 in    
Wind  
Wind Speed 8 mph (NNW)    
Max Wind Speed 17 mph    
Max Gust Speed 24 mph    
Visibility 10 miles    
Events      
Averages and records for this station are not official NWS values.
T = Trace of Precipitation, MM = Missing Value Source: NWS Daily Summary

Daily Weather History Graph

Daily Weather History Graph

Search for Another Location

Airport or City:

Trip Planner

Search our weather history database for the weather conditions in past years. The results will help you decide how hot, cold, wet, or windy it might be!

Date:

Astronomy

Mar. 22, 2014 Rise Set
Actual Time 8:44 AM AKDT 9:14 PM AKDT
Civil Twilight 7:55 AM AKDT 10:03 PM AKDT
Nautical Twilight 6:55 AM AKDT 11:04 PM AKDT
Astronomical Twilight 5:45 AM AKDT 12:15 AM AKDT
Moon 4:38 AM AKDT (3/22) 10:44 AM AKDT (3/22)
Length of Visible Light 14h 07m
Length of Day
12h 30m
Waning Gibbous, 64% of the Moon is Illuminated
Mar 22
Waning Gibbous
Mar 23
Last Quarter
Mar 30
New
Apr 7
First Quarter
Apr 14
Full

Hourly Weather History & Observations

Time (AKDT) Temp. Windchill Dew Point Humidity Pressure Visibility Wind Dir Wind Speed Gust Speed Precip Events Conditions
12:16 AM 26.6 °F 15.2 °F -0.4 °F 31% 30.55 in 10.0 mi NNW 13.8 mph 24.2 mph N/A   Clear
12:36 AM 26.6 °F 21.2 °F -0.4 °F 31% 30.56 in 10.0 mi North 4.6 mph 18.4 mph N/A   Clear
12:56 AM 28.4 °F 22.2 °F -0.4 °F 29% 30.57 in 10.0 mi ENE 5.8 mph - N/A   Clear
1:16 AM 26.6 °F - -2.2 °F 29% 30.57 in 10.0 mi Calm Calm - N/A   Clear
1:36 AM 26.6 °F 16.8 °F -0.4 °F 31% 30.57 in 10.0 mi NE 10.4 mph 17.3 mph N/A   Clear
1:56 AM 24.8 °F 14.6 °F -0.4 °F 34% 30.57 in 10.0 mi NE 10.4 mph - N/A   Clear
2:16 AM 21.2 °F 13.6 °F -0.4 °F 39% 30.57 in 10.0 mi North 5.8 mph - N/A   Clear
2:36 AM 23.0 °F - -0.4 °F 36% 30.57 in 10.0 mi Calm Calm - N/A   Clear
2:56 AM 24.8 °F - -0.4 °F 34% 30.57 in 10.0 mi Calm Calm - N/A   Clear
3:16 AM 21.2 °F 10.9 °F -0.4 °F 39% 30.57 in 10.0 mi North 9.2 mph - N/A   Clear
3:36 AM 21.2 °F 16.4 °F -0.4 °F 39% 30.57 in 10.0 mi North 3.5 mph - N/A   Clear
3:56 AM 21.2 °F 13.6 °F -0.4 °F 39% 30.58 in 10.0 mi NNW 5.8 mph - N/A   Clear
4:16 AM 19.4 °F 9.5 °F 1.4 °F 46% 30.57 in 10.0 mi North 8.1 mph - N/A   Clear
4:36 AM 19.4 °F 8.6 °F -2.2 °F 39% 30.57 in 10.0 mi North 9.2 mph - N/A   Clear
4:56 AM 19.4 °F 8.6 °F -0.4 °F 42% 30.58 in 10.0 mi North 9.2 mph - N/A   Clear
5:16 AM 21.2 °F 10.9 °F 1.4 °F 42% 30.58 in 10.0 mi North 9.2 mph - N/A   Clear
5:36 AM 14.0 °F 3.9 °F -7.6 °F 38% 30.58 in 10.0 mi NW 6.9 mph - N/A   Clear
5:56 AM 12.2 °F 1.7 °F -0.4 °F 57% 30.57 in 10.0 mi WNW 6.9 mph - N/A   Clear
6:16 AM 17.6 °F 12.3 °F -0.4 °F 45% 30.57 in 10.0 mi NW 3.5 mph - N/A   Clear
6:36 AM 15.8 °F 6.1 °F -5.8 °F 38% 30.57 in 10.0 mi NNW 6.9 mph - N/A   Clear
6:56 AM 10.4 °F 2.2 °F -4.0 °F 52% 30.58 in 10.0 mi NNW 4.6 mph - N/A   Clear
7:16 AM 17.6 °F 3.2 °F 10.4 °F 73% 30.57 in 10.0 mi ENE 15.0 mph - N/A   Clear
7:36 AM 15.8 °F 5.1 °F -7.6 °F 35% 30.57 in 10.0 mi NNE 8.1 mph - N/A   Clear
7:56 AM 10.4 °F -2.4 °F -2.2 °F 57% 30.57 in 10.0 mi NNE 9.2 mph - N/A   Clear
8:16 AM 10.4 °F -0.4 °F -4.0 °F 52% 30.57 in 10.0 mi North 6.9 mph - N/A   Clear
8:36 AM 12.2 °F -0.2 °F 3.2 °F 67% 30.58 in 10.0 mi NW 9.2 mph - N/A   Clear
8:56 AM 15.8 °F 6.1 °F 6.8 °F 68% 30.58 in 10.0 mi NW 6.9 mph - N/A   Clear
9:16 AM 14.0 °F 3.9 °F -7.6 °F 38% 30.58 in 10.0 mi NW 6.9 mph - N/A   Clear
9:36 AM 15.8 °F 8.6 °F -0.4 °F 49% 30.58 in 10.0 mi North 4.6 mph - N/A   Clear
9:56 AM 10.4 °F 2.2 °F -7.6 °F 44% 30.59 in 10.0 mi North 4.6 mph - N/A   Clear
10:16 AM 15.8 °F 7.2 °F 1.4 °F 53% 30.59 in 10.0 mi North 5.8 mph - N/A   Clear
10:36 AM 8.6 °F -1.3 °F -7.6 °F 48% 30.59 in 10.0 mi North 5.8 mph - N/A   Clear
10:56 AM 5.0 °F -6.9 °F -14.8 °F 40% 30.59 in 10.0 mi NW 6.9 mph - N/A   Clear
11:16 AM 12.2 °F 4.3 °F 6.8 °F 79% 30.60 in 10.0 mi North 4.6 mph - N/A   Clear
11:36 AM 19.4 °F 12.8 °F 1.4 °F 46% 30.59 in 10.0 mi NNE 4.6 mph - N/A   Clear
11:56 AM 24.8 °F 14.6 °F 8.6 °F 50% 30.59 in 10.0 mi ENE 10.4 mph - N/A   Clear
12:16 PM 10.4 °F -2.4 °F -11.2 °F 37% 30.60 in 10.0 mi WNW 9.2 mph - N/A   Clear
12:36 PM 8.6 °F -5.5 °F 8.6 °F 100% 30.59 in 10.0 mi WNW 10.4 mph - N/A   Clear
12:56 PM 8.6 °F -3.7 °F -2.2 °F 62% 30.59 in 10.0 mi NW 8.1 mph - N/A   Clear
1:16 PM 10.4 °F -2.4 °F -5.8 °F 48% 30.59 in 10.0 mi WNW 9.2 mph - N/A   Clear
1:36 PM 14.0 °F 2.0 °F -0.4 °F 53% 30.59 in 10.0 mi NW 9.2 mph - N/A   Clear
1:56 PM 15.8 °F 3.4 °F 8.6 °F 73% 30.59 in 10.0 mi WNW 10.4 mph - N/A   Clear
2:16 PM 14.0 °F 2.0 °F 3.2 °F 62% 30.59 in 10.0 mi WNW 9.2 mph - N/A   Clear
2:36 PM 14.0 °F 2.0 °F -0.4 °F 53% 30.58 in 10.0 mi WNW 9.2 mph - N/A   Clear
2:56 PM 15.8 °F 6.1 °F 3.2 °F 58% 30.58 in 10.0 mi NW 6.9 mph - N/A   Clear
3:16 PM 15.8 °F 5.1 °F 5.0 °F 62% 30.58 in 10.0 mi NW 8.1 mph - N/A   Clear
3:36 PM 17.6 °F 7.3 °F 5.0 °F 58% 30.57 in 10.0 mi WNW 8.1 mph - N/A   Clear
3:56 PM 17.6 °F 5.7 °F 3.2 °F 53% 30.56 in 10.0 mi NW 10.4 mph - N/A   Clear
4:16 PM 19.4 °F 9.5 °F 3.2 °F 49% 30.55 in 10.0 mi NW 8.1 mph - N/A   Clear
4:36 PM 19.4 °F 8.6 °F 3.2 °F 49% 30.55 in 10.0 mi WNW 9.2 mph - N/A   Clear
4:56 PM 23.0 °F 13.9 °F 1.4 °F 39% 30.55 in 10.0 mi NW 8.1 mph - N/A   Clear
5:16 PM 23.0 °F 13.9 °F 1.4 °F 39% 30.54 in 10.0 mi NW 8.1 mph - N/A   Clear
5:36 PM 21.2 °F 10.9 °F 8.6 °F 58% 30.54 in 10.0 mi NW 9.2 mph - N/A   Clear
5:56 PM 24.8 °F 16.9 °F 6.8 °F 46% 30.54 in 10.0 mi NW 6.9 mph - N/A   Clear
6:16 PM 28.4 °F 21.2 °F 1.4 °F 31% 30.54 in 10.0 mi WNW 6.9 mph - N/A   Clear
6:36 PM 24.8 °F 16.1 °F 6.8 °F 46% 30.53 in 10.0 mi NW 8.1 mph - N/A   Clear
6:56 PM 24.8 °F 16.9 °F 3.2 °F 40% 30.52 in 10.0 mi WNW 6.9 mph - N/A   Clear
7:16 PM 30.2 °F 21.9 °F 6.8 °F 37% 30.52 in 10.0 mi NNE 9.2 mph 16.1 mph N/A   Clear
7:36 PM 30.2 °F 21.9 °F -0.4 °F 27% 30.51 in 10.0 mi NNW 9.2 mph - N/A   Clear
7:56 PM 33.8 °F 25.3 °F 3.2 °F 28% 30.51 in 10.0 mi North 11.5 mph 18.4 mph N/A   Clear
8:16 PM 33.8 °F 27.7 °F -0.4 °F 23% 30.51 in 10.0 mi North 6.9 mph - N/A   Clear
8:36 PM 33.8 °F 27.0 °F -2.2 °F 22% 30.51 in 10.0 mi North 8.1 mph 21.9 mph N/A   Clear
8:56 PM 33.8 °F 30.8 °F -0.4 °F 23% 30.51 in 10.0 mi NNW 3.5 mph 16.1 mph N/A   Clear
9:16 PM 30.2 °F 25.4 °F -0.4 °F 27% 30.51 in 10.0 mi NE 4.6 mph - N/A   Clear
9:36 PM 28.4 °F 20.4 °F 3.2 °F 34% 30.51 in 10.0 mi NNW 8.1 mph - N/A   Clear
9:56 PM 30.2 °F 25.4 °F 1.4 °F 29% 30.51 in 10.0 mi NNW 4.6 mph - N/A   Clear
10:16 PM 30.2 °F 25.4 °F 1.4 °F 29% 30.51 in 10.0 mi NNW 4.6 mph - N/A   Clear
10:36 PM 28.4 °F 22.2 °F 1.4 °F 31% 30.52 in 10.0 mi North 5.8 mph - N/A   Clear
10:56 PM 30.2 °F 20.8 °F 3.2 °F 32% 30.52 in 10.0 mi East 11.5 mph 23.0 mph N/A   Clear
11:16 PM 32.0 °F 23.0 °F -0.4 °F 25% 30.53 in 10.0 mi ENE 11.5 mph 21.9 mph N/A   Clear
11:36 PM 30.2 °F 21.3 °F -0.4 °F 27% 30.53 in 10.0 mi ENE 10.4 mph 20.7 mph N/A   Clear
11:56 PM 30.2 °F 18.5 °F -0.4 °F 27% 30.52 in 10.0 mi East 17.3 mph 23.0 mph N/A   Clear